createdAt,value
2022-12-15T00:00:19.466Z,42.60
2022-12-15T00:03:04.986Z,44.42
2022-12-15T00:05:50.695Z,42.40
2022-12-15T00:08:35.930Z,31.58
2022-12-15T00:11:21.826Z,42.03
2022-12-15T00:14:07.092Z,41.60
2022-12-15T00:16:52.830Z,42.03
2022-12-15T00:19:37.953Z,42.93
2022-12-15T00:22:25.000Z,44.72
2022-12-15T00:25:10.298Z,43.95
2022-12-15T00:27:55.738Z,41.80
2022-12-15T00:30:41.019Z,40.30
2022-12-15T00:33:29.768Z,42.95
2022-12-15T00:36:17.803Z,41.78
2022-12-15T00:38:45.783Z,42.30
2022-12-15T00:41:16.200Z,41.63
2022-12-15T00:43:43.998Z,42.53
2022-12-15T00:46:29.368Z,41.28
2022-12-15T00:48:57.457Z,42.33
2022-12-15T00:51:43.397Z,41.15
2022-12-15T00:54:29.512Z,42.70
2022-12-15T00:57:15.472Z,42.13
2022-12-15T01:00:01.167Z,42.70
2022-12-15T01:02:46.785Z,41.88
2022-12-15T01:05:32.810Z,43.88
2022-12-15T01:08:18.959Z,42.13
2022-12-15T01:11:04.998Z,44.42
2022-12-15T01:13:50.715Z,43.25
2022-12-15T01:16:36.356Z,44.50
2022-12-15T01:19:22.534Z,43.63
2022-12-15T01:21:49.799Z,40.88
2022-12-15T01:24:17.114Z,44.33
2022-12-15T01:26:44.029Z,47.90
2022-12-15T01:29:11.087Z,49.15
2022-12-15T01:31:38.180Z,47.08
2022-12-15T01:34:05.687Z,49.05
2022-12-15T01:36:32.847Z,50.42
2022-12-15T01:38:59.750Z,45.50
2022-12-15T01:41:27.347Z,45.47
2022-12-15T01:43:54.589Z,47.42
2022-12-15T01:46:23.344Z,48.60
2022-12-15T01:49:27.008Z,47.83
2022-12-15T01:52:03.089Z,48.28
2022-12-15T01:54:43.341Z,47.05
2022-12-15T01:57:18.902Z,45.58
2022-12-15T01:59:54.518Z,47.22
2022-12-15T02:02:27.016Z,47.20
2022-12-15T02:04:57.034Z,45.60
2022-12-15T02:07:24.492Z,46.67
2022-12-15T02:09:55.456Z,46.35
2022-12-15T02:12:55.825Z,46.65
2022-12-15T02:15:44.183Z,46.45
2022-12-15T02:18:52.406Z,51.38
2022-12-15T02:21:40.716Z,50.60
2022-12-15T02:24:55.130Z,48.08
2022-12-15T02:27:50.024Z,48.25
2022-12-15T02:30:41.298Z,48.03
2022-12-15T02:33:25.075Z,48.28
2022-12-15T02:36:28.574Z,48.33
2022-12-15T02:38:55.557Z,45.28
2022-12-15T02:41:42.111Z,46.08
2022-12-15T02:46:47.865Z,38.50
2022-12-15T02:49:32.549Z,40.55
2022-12-15T02:52:13.295Z,40.65
2022-12-15T02:55:34.208Z,40.65
2022-12-15T02:58:20.394Z,40.00
2022-12-15T03:00:58.469Z,40.33
2022-12-15T03:03:29.683Z,41.95
2022-12-15T03:05:57.829Z,38.88
2022-12-15T03:08:24.790Z,43.13
2022-12-15T03:10:54.782Z,39.90
2022-12-15T03:13:23.474Z,40.88
2022-12-15T03:15:51.466Z,38.13
2022-12-15T03:18:18.790Z,38.47
2022-12-15T03:20:45.852Z,40.03
2022-12-15T03:23:12.877Z,37.78
2022-12-15T03:25:39.783Z,36.70
2022-12-15T03:28:06.760Z,38.30
2022-12-15T03:30:33.846Z,41.03
2022-12-15T03:33:00.768Z,36.22
2022-12-15T03:35:27.921Z,38.33
2022-12-15T03:37:54.961Z,37.67
2022-12-15T03:40:21.915Z,35.75
2022-12-15T03:42:48.872Z,37.22
2022-12-15T03:45:28.224Z,36.47
2022-12-15T03:47:56.878Z,38.00
2022-12-15T03:50:28.587Z,37.70
2022-12-15T03:52:59.395Z,38.55
2022-12-15T03:55:31.156Z,37.63
2022-12-15T03:57:59.400Z,36.15
2022-12-15T04:00:27.172Z,35.67
2022-12-15T04:02:54.763Z,35.03
2022-12-15T04:05:29.165Z,38.50
2022-12-15T04:07:58.863Z,36.53
2022-12-15T04:10:34.027Z,36.50
2022-12-15T04:13:08.984Z,36.00
2022-12-15T04:15:38.854Z,34.83
2022-12-15T04:18:12.257Z,35.25
2022-12-15T04:20:40.745Z,33.85
2022-12-15T04:23:08.313Z,35.05
2022-12-15T04:25:55.518Z,33.88
2022-12-15T04:28:41.402Z,34.65
2022-12-15T04:31:41.604Z,35.33
2022-12-15T04:34:38.363Z,34.13
2022-12-15T04:40:12.900Z,31.20
2022-12-15T04:43:05.661Z,30.92
2022-12-15T04:45:51.621Z,31.42
2022-12-15T04:48:37.032Z,33.35
2022-12-15T04:51:23.974Z,34.30
2022-12-15T04:54:09.881Z,34.45
2022-12-15T04:56:55.206Z,35.07
2022-12-15T04:59:40.783Z,31.47
2022-12-15T05:02:26.222Z,33.47
2022-12-15T05:05:12.175Z,33.25
2022-12-15T05:07:57.496Z,31.38
2022-12-15T05:10:43.114Z,31.75
2022-12-15T05:13:28.660Z,33.10
2022-12-15T05:16:14.530Z,35.92
2022-12-15T05:18:59.847Z,34.47
2022-12-15T05:21:45.639Z,26.58
2022-12-15T05:24:30.945Z,35.47
2022-12-15T05:27:16.407Z,33.58
2022-12-15T05:30:01.753Z,30.17
2022-12-15T05:32:33.247Z,30.73
2022-12-15T05:35:01.300Z,28.83
2022-12-15T05:37:28.321Z,31.95
2022-12-15T05:39:55.228Z,30.88
2022-12-15T05:42:22.368Z,32.47
2022-12-15T05:44:49.336Z,29.65
2022-12-15T05:47:16.963Z,30.17
2022-12-15T05:49:44.014Z,30.13
2022-12-15T05:52:11.031Z,30.33
2022-12-15T05:54:38.056Z,28.13
2022-12-15T05:57:04.946Z,27.92
2022-12-15T05:59:32.355Z,27.52
2022-12-15T06:01:59.370Z,30.98
2022-12-15T06:04:26.757Z,31.00
2022-12-15T06:06:53.811Z,30.67
2022-12-15T06:09:20.825Z,30.50
2022-12-15T06:11:48.052Z,30.42
2022-12-15T06:14:15.203Z,29.35
2022-12-15T06:16:50.721Z,32.47
2022-12-15T06:19:19.140Z,30.30
2022-12-15T06:21:46.303Z,31.45
2022-12-15T06:24:13.218Z,31.55
2022-12-15T06:26:41.013Z,31.80
2022-12-15T06:29:12.503Z,29.77
2022-12-15T06:31:41.162Z,33.17
2022-12-15T06:34:12.338Z,27.88
2022-12-15T06:36:39.437Z,29.67
2022-12-15T06:39:11.367Z,29.83
2022-12-15T06:41:38.861Z,28.45
2022-12-15T06:44:06.319Z,29.65
2022-12-15T06:46:35.308Z,31.50
2022-12-15T06:49:02.578Z,30.30
2022-12-15T06:51:29.839Z,29.73
2022-12-15T06:53:57.148Z,29.60
2022-12-15T06:56:34.474Z,29.77
2022-12-15T06:59:04.317Z,30.55
2022-12-15T07:01:32.512Z,30.83
2022-12-15T07:04:01.474Z,29.35
2022-12-15T07:06:36.729Z,30.20
2022-12-15T07:09:08.284Z,30.42
2022-12-15T07:11:35.683Z,30.70
2022-12-15T07:14:03.239Z,30.65
2022-12-15T07:16:31.264Z,28.42
2022-12-15T07:18:58.536Z,29.38
2022-12-15T07:21:25.494Z,29.75
2022-12-15T07:23:55.298Z,27.85
2022-12-15T07:26:24.122Z,26.63
2022-12-15T07:28:51.412Z,29.58
2022-12-15T07:31:18.454Z,30.05
2022-12-15T07:33:47.558Z,28.90
2022-12-15T07:36:14.657Z,26.30
2022-12-15T07:38:41.613Z,29.88
2022-12-15T07:41:10.383Z,29.35
2022-12-15T07:43:38.463Z,29.35
2022-12-15T07:46:06.334Z,28.75
2022-12-15T07:48:33.837Z,29.38
2022-12-15T07:51:10.865Z,27.77
2022-12-15T07:53:40.178Z,27.17
2022-12-15T07:56:09.593Z,29.33
2022-12-15T07:58:37.930Z,27.92
2022-12-15T08:01:08.318Z,27.63
2022-12-15T08:03:37.099Z,26.38
2022-12-15T08:06:11.210Z,27.40
2022-12-15T08:08:39.624Z,26.77
2022-12-15T08:11:11.893Z,29.30
2022-12-15T08:16:28.064Z,26.73
2022-12-15T08:18:57.092Z,31.30
2022-12-15T08:21:24.770Z,29.52
2022-12-15T08:23:51.749Z,27.70
2022-12-15T08:26:23.649Z,29.38
2022-12-15T08:28:54.222Z,28.15
2022-12-15T08:31:23.611Z,28.42
2022-12-15T08:33:51.115Z,31.20
2022-12-15T08:36:20.383Z,26.33
2022-12-15T08:38:48.090Z,28.17
2022-12-15T08:41:19.987Z,27.85
2022-12-15T08:43:51.707Z,29.33
2022-12-15T08:46:22.483Z,31.20
2022-12-15T08:48:50.353Z,29.92
2022-12-15T08:51:17.720Z,25.70
2022-12-15T08:53:45.967Z,28.17
2022-12-15T08:56:19.537Z,27.52
2022-12-15T08:58:48.086Z,26.02
2022-12-15T09:01:23.359Z,25.85
2022-12-15T09:06:33.692Z,24.15
2022-12-15T09:09:07.855Z,23.85
2022-12-15T09:11:35.493Z,22.88
2022-12-15T09:14:03.581Z,23.58
2022-12-15T09:16:30.784Z,23.83
2022-12-15T09:18:59.932Z,24.17
2022-12-15T09:21:30.250Z,26.67
2022-12-15T09:24:03.276Z,23.15
2022-12-15T09:26:32.909Z,23.25
2022-12-15T09:29:01.932Z,25.38
2022-12-15T09:31:32.762Z,24.33
2022-12-15T09:34:01.242Z,22.10
2022-12-15T09:36:30.397Z,23.83
2022-12-15T09:38:57.616Z,21.92
2022-12-15T09:41:31.305Z,22.05
2022-12-15T09:44:07.943Z,21.25
2022-12-15T09:46:56.640Z,21.48
2022-12-15T09:49:47.856Z,22.50
2022-12-15T09:52:20.559Z,21.33
2022-12-15T09:54:47.831Z,23.80
2022-12-15T09:57:55.964Z,21.88
2022-12-15T10:00:38.026Z,21.13
2022-12-15T10:03:30.622Z,22.05
2022-12-15T10:06:22.034Z,19.77
2022-12-15T10:09:01.967Z,23.40
2022-12-15T10:11:51.031Z,22.20
2022-12-15T10:15:06.546Z,22.95
2022-12-15T10:17:56.795Z,23.00
2022-12-15T10:20:28.683Z,22.20
2022-12-15T10:23:02.902Z,23.33
2022-12-15T10:25:33.497Z,21.48
2022-12-15T10:28:34.401Z,22.48
2022-12-15T10:31:15.578Z,23.73
2022-12-15T10:33:47.153Z,22.13
2022-12-15T10:36:17.372Z,24.08
2022-12-15T10:38:50.392Z,22.35
2022-12-15T10:41:21.195Z,22.23
2022-12-15T10:43:53.365Z,23.48
2022-12-15T10:46:27.830Z,21.48
2022-12-15T10:49:23.553Z,21.25
2022-12-15T10:52:00.170Z,22.17
2022-12-15T10:54:45.245Z,22.20
2022-12-15T10:57:19.668Z,22.60
2022-12-15T10:59:46.921Z,20.48
2022-12-15T11:02:24.087Z,22.08
2022-12-15T11:05:01.441Z,21.63
2022-12-15T11:07:52.300Z,20.80
2022-12-15T11:10:51.937Z,21.73
2022-12-15T11:13:22.918Z,22.48
2022-12-15T11:15:56.460Z,21.27
2022-12-15T11:18:45.289Z,21.10
2022-12-15T11:21:25.316Z,22.83
2022-12-15T11:24:20.151Z,22.23
2022-12-15T11:27:12.151Z,20.27
2022-12-15T11:30:08.442Z,24.05
2022-12-15T11:32:38.840Z,20.75
2022-12-15T11:35:14.388Z,22.02
2022-12-15T11:37:42.449Z,21.52
2022-12-15T11:40:38.823Z,21.45
2022-12-15T11:43:43.522Z,20.45
2022-12-15T11:46:20.834Z,20.15
2022-12-15T11:49:25.304Z,20.02
2022-12-15T11:52:34.987Z,19.58
2022-12-15T11:55:41.882Z,20.05
2022-12-15T11:58:39.410Z,19.15
2022-12-15T12:01:34.098Z,20.15
2022-12-15T12:04:46.766Z,19.67
2022-12-15T12:07:41.947Z,19.65
2022-12-15T12:10:36.153Z,19.70
2022-12-15T12:13:44.929Z,19.13
2022-12-15T12:16:34.376Z,19.10
2022-12-15T12:19:16.392Z,19.05
2022-12-15T12:21:51.321Z,19.58
2022-12-15T12:24:28.706Z,19.58
2022-12-15T12:27:07.665Z,18.27
2022-12-15T12:29:53.432Z,18.48
2022-12-15T12:32:50.478Z,19.48
2022-12-15T12:35:33.572Z,18.27
2022-12-15T12:38:04.849Z,19.15
2022-12-15T12:40:40.789Z,20.17
2022-12-15T12:43:14.011Z,20.70
2022-12-15T12:45:52.078Z,19.02
2022-12-15T12:48:37.807Z,19.55
2022-12-15T12:51:34.746Z,20.15
2022-12-15T12:54:02.633Z,18.40
2022-12-15T12:56:42.527Z,19.67
2022-12-15T12:59:31.556Z,20.77
2022-12-15T13:02:20.593Z,18.58
2022-12-15T13:05:05.127Z,19.35
2022-12-15T13:07:41.058Z,18.67
2022-12-15T13:10:08.093Z,19.27
2022-12-15T13:13:00.589Z,18.88
2022-12-15T13:15:27.583Z,18.40
2022-12-15T13:18:25.177Z,18.67
2022-12-15T13:20:57.412Z,17.67
2022-12-15T13:23:26.012Z,18.60
2022-12-15T13:25:55.997Z,18.15
2022-12-15T13:28:44.297Z,19.02
2022-12-15T13:31:18.911Z,18.55
2022-12-15T13:34:01.447Z,20.33
2022-12-15T13:36:40.064Z,19.08
2022-12-15T13:39:13.161Z,17.92
2022-12-15T13:42:23.639Z,19.25
2022-12-15T13:44:45.317Z,17.33
2022-12-15T13:47:19.339Z,18.40
2022-12-15T13:50:02.284Z,19.17
2022-12-15T13:55:39.055Z,17.67
2022-12-15T13:58:17.808Z,18.27
2022-12-15T14:00:54.355Z,17.40
2022-12-15T14:03:21.925Z,18.02
2022-12-15T14:05:55.414Z,18.15
2022-12-15T14:08:26.035Z,16.90
2022-12-15T14:10:56.414Z,18.05
2022-12-15T14:13:26.717Z,16.40
2022-12-15T14:15:56.263Z,17.92
2022-12-15T14:18:28.272Z,17.55
2022-12-15T14:20:55.390Z,17.42
2022-12-15T14:23:26.897Z,17.25
2022-12-15T14:26:04.933Z,17.00
2022-12-15T14:28:36.314Z,16.60
2022-12-15T14:31:07.754Z,17.38
2022-12-15T14:33:40.239Z,17.77
2022-12-15T14:36:11.767Z,17.35
2022-12-15T14:38:51.484Z,18.30
2022-12-15T14:41:28.584Z,17.58
2022-12-15T14:44:36.960Z,17.33
2022-12-15T14:47:07.335Z,13.47
2022-12-15T14:49:43.956Z,18.85
2022-12-15T14:52:42.082Z,19.90
2022-12-15T14:55:37.278Z,18.00
2022-12-15T14:58:32.404Z,19.40
2022-12-15T15:01:02.415Z,18.30
2022-12-15T15:03:09.751Z,18.67
2022-12-15T15:03:39.645Z,19.30
2022-12-15T15:06:12.537Z,17.63
2022-12-15T15:08:53.396Z,21.08
2022-12-15T15:11:29.611Z,19.80
2022-12-15T15:14:01.262Z,20.15
2022-12-15T15:16:28.504Z,19.58
2022-12-15T15:18:57.264Z,19.60
2022-12-15T15:21:27.423Z,19.88
2022-12-15T15:24:23.671Z,19.73
2022-12-15T15:26:52.155Z,18.98
2022-12-15T15:29:41.139Z,21.08
2022-12-15T15:32:25.295Z,20.15
2022-12-15T15:34:52.564Z,19.80
2022-12-15T15:37:25.471Z,19.63
2022-12-15T15:39:54.531Z,20.45
2022-12-15T15:42:25.468Z,21.17
2022-12-15T15:44:57.688Z,19.50
2022-12-15T15:47:26.283Z,19.88
2022-12-15T15:49:55.797Z,21.38
2022-12-15T15:52:23.323Z,25.05
2022-12-15T15:54:51.761Z,22.13
2022-12-15T15:57:19.493Z,21.75
2022-12-15T15:59:47.027Z,21.52
2022-12-15T16:02:15.235Z,24.45
2022-12-15T16:04:43.897Z,21.75
2022-12-15T16:07:24.825Z,23.65
2022-12-15T16:09:53.499Z,22.30
2022-12-15T16:12:52.817Z,22.10
2022-12-15T16:15:29.580Z,21.27
2022-12-15T16:17:56.533Z,20.75
2022-12-15T16:20:27.472Z,22.63
2022-12-15T16:23:00.986Z,22.80
2022-12-15T16:25:41.441Z,22.02
2022-12-15T16:28:21.356Z,23.05
2022-12-15T16:30:48.994Z,22.00
2022-12-15T16:33:16.461Z,22.52
2022-12-15T16:35:45.159Z,21.77
2022-12-15T16:38:29.126Z,23.08
2022-12-15T16:40:58.898Z,21.75
2022-12-15T16:43:32.879Z,21.85
2022-12-15T16:46:03.604Z,24.48
2022-12-15T16:48:37.013Z,23.13
2022-12-15T16:51:08.852Z,23.05
2022-12-15T16:53:39.511Z,23.42
2022-12-15T16:56:08.640Z,22.90
2022-12-15T16:58:36.354Z,23.90
2022-12-15T17:01:03.923Z,24.77
2022-12-15T17:03:31.328Z,23.77
2022-12-15T17:06:06.658Z,22.95
2022-12-15T17:08:41.658Z,24.03
2022-12-15T17:11:21.902Z,23.77
2022-12-15T17:13:54.464Z,23.63
2022-12-15T17:16:24.773Z,23.40
2022-12-15T17:18:52.293Z,24.15
2022-12-15T17:21:28.285Z,23.45
2022-12-15T17:24:00.107Z,24.42
2022-12-15T17:26:31.086Z,24.00
2022-12-15T17:29:14.811Z,24.98
2022-12-15T17:31:41.817Z,25.83
2022-12-15T17:34:33.526Z,23.75
2022-12-15T17:37:06.461Z,23.83
2022-12-15T17:39:35.267Z,24.33
2022-12-15T17:42:03.028Z,24.50
2022-12-15T17:44:36.940Z,25.05
2022-12-15T17:47:07.967Z,24.85
2022-12-15T17:49:37.546Z,24.50
2022-12-15T17:52:24.959Z,24.23
2022-12-15T17:57:19.177Z,22.90
2022-12-15T17:59:46.280Z,24.95
2022-12-15T18:02:14.833Z,24.83
2022-12-15T18:04:43.010Z,23.73
2022-12-15T18:07:20.900Z,24.77
2022-12-15T18:09:49.894Z,24.88
2022-12-15T18:12:27.645Z,23.30
2022-12-15T18:14:55.960Z,26.38
2022-12-15T18:17:23.667Z,25.65
2022-12-15T18:19:50.753Z,26.42
2022-12-15T18:22:23.906Z,25.15
2022-12-15T18:24:53.689Z,24.05
2022-12-15T18:27:27.275Z,24.98
2022-12-15T18:29:55.019Z,24.02
2022-12-15T18:32:26.461Z,26.45
2022-12-15T18:34:54.568Z,25.58
2022-12-15T18:37:24.947Z,26.52
2022-12-15T18:39:52.581Z,25.75
2022-12-15T18:42:21.601Z,25.40
2022-12-15T18:44:53.628Z,24.88
2022-12-15T18:47:23.835Z,24.80
2022-12-15T18:49:50.984Z,24.52
2022-12-15T18:52:23.764Z,23.85
2022-12-15T18:54:53.205Z,25.40
2022-12-15T18:57:29.947Z,27.13
2022-12-15T19:00:17.413Z,25.30
2022-12-15T19:02:44.643Z,26.38
2022-12-15T19:05:27.657Z,25.65
2022-12-15T19:08:20.131Z,25.50
2022-12-15T19:11:31.111Z,24.30
2022-12-15T19:14:01.290Z,23.33
2022-12-15T19:16:49.408Z,26.58
2022-12-15T19:19:34.841Z,24.02
2022-12-15T19:22:21.063Z,27.05
2022-12-15T19:24:56.717Z,27.73
2022-12-15T19:27:26.682Z,27.33
2022-12-15T19:29:55.078Z,27.98
2022-12-15T19:32:23.140Z,27.38
2022-12-15T19:34:50.515Z,27.23
2022-12-15T19:37:26.374Z,27.00
2022-12-15T19:39:56.374Z,25.92
2022-12-15T19:42:35.770Z,27.35
2022-12-15T19:45:22.278Z,27.05
2022-12-15T19:47:49.952Z,27.30
2022-12-15T19:50:23.787Z,27.10
2022-12-15T19:52:55.106Z,26.63
2022-12-15T19:55:29.931Z,25.50
2022-12-15T19:57:56.992Z,27.67
2022-12-15T20:00:27.719Z,26.05
2022-12-15T20:02:55.905Z,28.10
2022-12-15T20:05:24.895Z,27.27
2022-12-15T20:07:54.799Z,27.48
2022-12-15T20:10:31.721Z,29.10
2022-12-15T20:13:01.044Z,30.67
2022-12-15T20:15:28.444Z,31.65
2022-12-15T20:17:58.212Z,30.52
2022-12-15T20:20:27.976Z,32.53
2022-12-15T20:22:59.722Z,32.78
2022-12-15T20:25:31.084Z,37.17
2022-12-15T20:28:00.526Z,36.85
2022-12-15T20:30:32.675Z,38.92
2022-12-15T20:33:03.083Z,42.38
2022-12-15T20:35:33.327Z,40.30
2022-12-15T20:38:04.323Z,40.95
2022-12-15T20:40:32.124Z,39.60
2022-12-15T20:42:59.229Z,37.85
2022-12-15T20:45:27.939Z,38.10
2022-12-15T20:47:55.975Z,39.00
2022-12-15T20:50:24.708Z,38.53
2022-12-15T20:52:52.672Z,36.58
2022-12-15T20:55:22.383Z,39.25
2022-12-15T20:57:49.531Z,37.60
2022-12-15T21:00:20.772Z,38.85
2022-12-15T21:02:49.032Z,39.67
2022-12-15T21:05:23.146Z,41.50
2022-12-15T21:07:50.827Z,40.22
2022-12-15T21:10:20.276Z,39.20
2022-12-15T21:12:49.222Z,41.15
2022-12-15T21:15:20.514Z,39.97
2022-12-15T21:18:03.860Z,44.00
2022-12-15T21:20:41.707Z,42.35
2022-12-15T21:23:28.668Z,43.30
2022-12-15T21:25:58.702Z,45.40
2022-12-15T21:28:25.789Z,46.50
2022-12-15T21:30:53.348Z,47.65
2022-12-15T21:33:20.911Z,46.03
2022-12-15T21:35:48.532Z,49.45
2022-12-15T21:38:29.295Z,50.08
2022-12-15T21:41:03.079Z,50.22
2022-12-15T21:43:34.119Z,49.63
2022-12-15T21:46:04.419Z,48.88
2022-12-15T21:48:50.096Z,48.40
2022-12-15T21:51:17.880Z,45.88
2022-12-15T21:53:46.133Z,45.95
2022-12-15T21:56:21.579Z,43.30
2022-12-15T21:58:52.777Z,41.80
2022-12-15T22:01:28.813Z,43.72
2022-12-15T22:03:58.146Z,39.65
2022-12-15T22:06:28.840Z,38.85
2022-12-15T22:09:00.614Z,38.28
2022-12-15T22:11:29.950Z,39.83
2022-12-15T22:14:03.301Z,36.17
2022-12-15T22:16:30.441Z,34.63
2022-12-15T22:18:58.699Z,33.95
2022-12-15T22:21:27.346Z,34.42
2022-12-15T22:23:54.303Z,34.75
2022-12-15T22:26:29.581Z,33.88
2022-12-15T22:29:00.596Z,32.47
2022-12-15T22:31:28.534Z,33.60
2022-12-15T22:33:55.644Z,32.33
2022-12-15T22:36:22.612Z,32.70
2022-12-15T22:38:49.514Z,29.77
2022-12-15T22:41:24.354Z,30.98
2022-12-15T22:43:56.306Z,32.50
2022-12-15T22:46:25.085Z,31.08
2022-12-15T22:48:54.794Z,29.20
2022-12-15T22:51:21.990Z,29.15
2022-12-15T22:53:48.925Z,28.55
2022-12-15T22:56:27.175Z,29.25
2022-12-15T22:59:01.500Z,30.35
2022-12-15T23:01:29.477Z,28.42
2022-12-15T23:03:56.614Z,31.05
2022-12-15T23:06:23.885Z,30.40
2022-12-15T23:08:55.903Z,30.48
2022-12-15T23:11:39.614Z,30.38
2022-12-15T23:14:12.043Z,28.83
2022-12-15T23:16:39.586Z,31.75
2022-12-15T23:19:08.086Z,30.33
2022-12-15T23:21:36.956Z,30.70
2022-12-15T23:24:03.969Z,29.65
2022-12-15T23:26:30.958Z,29.08
2022-12-15T23:28:57.917Z,30.42
2022-12-15T23:31:25.200Z,29.17
2022-12-15T23:33:52.385Z,26.77
2022-12-15T23:36:19.867Z,28.70
2022-12-15T23:38:46.903Z,28.20
2022-12-15T23:41:18.560Z,26.85
2022-12-15T23:43:45.690Z,28.25
2022-12-15T23:46:12.987Z,26.02
2022-12-15T23:48:43.292Z,26.38
2022-12-15T23:51:19.159Z,27.92
2022-12-15T23:56:17.639Z,24.52
2022-12-15T23:58:47.610Z,24.98
